Time;durP1;ratioP1;P1;durP2;ratioP2;P2;SDS_P1;SDS_P2;PMS_P1;PMS_P2;Temp;Humidity;BMP_temperature;BMP_pressure;BME280_temperature;BME280_humidity;BME280_pressure;Samples;Min_cycle;Max_cycle;Signal;HPM_P1;HPM_P2
2024/03/06 00:00:57;;;;;;;20.07;10.87;;;2.40;99.90;2.00;100826.00;;;;4928428;28;121045;-63
2024/03/06 00:03:23;;;;;;;21.40;11.40;;;2.20;99.90;1.90;100833.00;;;;4928396;28;113754;-63
2024/03/06 00:05:49;;;;;;;16.30;11.10;;;2.20;99.90;1.90;100822.00;;;;4928472;28;108938;-63
2024/03/06 00:08:15;;;;;;;24.60;11.17;;;2.30;99.90;1.80;100835.00;;;;4928750;28;120873;-64
2024/03/06 00:10:41;;;;;;;19.73;10.53;;;2.20;99.90;1.80;100839.00;;;;4935611;28;93238;-63
2024/03/06 00:13:07;;;;;;;13.10;9.40;;;2.10;99.90;1.80;100834.00;;;;4929729;28;93058;-63
2024/03/06 00:15:33;;;;;;;23.17;12.40;;;2.00;99.90;1.70;100837.00;;;;4933790;28;93905;-64
2024/03/06 00:17:59;;;;;;;16.97;11.90;;;2.10;99.90;1.70;100844.00;;;;4932076;28;92998;-64
2024/03/06 00:20:25;;;;;;;15.07;9.57;;;2.10;99.90;1.70;100843.00;;;;4936140;28;93828;-64
2024/03/06 00:22:51;;;;;;;17.57;10.80;;;2.70;99.90;1.70;100850.00;;;;4934746;28;103735;-65
2024/03/06 00:25:16;;;;;;;16.50;10.90;;;2.00;99.90;1.70;100850.00;;;;4927118;28;96333;-62
2024/03/06 00:27:42;;;;;;;20.90;11.03;;;2.00;99.90;1.70;100839.00;;;;4931525;28;123021;-63
2024/03/06 00:30:11;;;;;;;15.50;10.43;;;2.00;99.90;1.70;100847.00;;;;4924951;28;122006;-64
2024/03/06 00:32:36;;;;;;;20.33;12.73;;;2.00;99.90;1.70;100844.00;;;;4925252;28;106077;-62
2024/03/06 00:35:03;;;;;;;15.70;9.97;;;1.90;99.90;1.60;100838.00;;;;4928875;28;110321;-64
2024/03/06 00:37:29;;;;;;;17.57;11.27;;;1.90;99.90;1.60;100846.00;;;;4942722;28;95439;-62
2024/03/06 00:39:55;;;;;;;17.67;11.80;;;1.80;99.90;1.50;100852.00;;;;4926322;28;122529;-63
2024/03/06 00:42:21;;;;;;;19.10;10.93;;;1.80;99.90;1.50;100850.00;;;;4929083;28;93068;-62
2024/03/06 00:44:47;;;;;;;20.50;12.43;;;1.90;99.90;1.50;100854.00;;;;4927148;28;97677;-63
2024/03/06 00:47:13;;;;;;;22.40;11.77;;;1.80;99.90;1.40;100849.00;;;;4926615;28;118689;-63
2024/03/06 00:49:38;;;;;;;15.73;11.63;;;1.80;99.90;1.40;100854.00;;;;4930883;28;93687;-63
2024/03/06 00:52:04;;;;;;;19.47;11.53;;;1.70;99.90;1.40;100853.00;;;;4926274;28;93008;-61
2024/03/06 00:54:30;;;;;;;15.70;10.70;;;1.70;99.90;1.40;100858.00;;;;4932345;28;108626;-63
2024/03/06 00:56:57;;;;;;;21.13;11.13;;;1.70;99.90;1.30;100853.00;;;;4931204;28;92777;-63
2024/03/06 00:59:23;;;;;;;18.70;10.80;;;1.60;99.90;1.30;100855.00;;;;4926356;28;92717;-63
2024/03/06 01:01:48;;;;;;;14.97;10.43;;;1.50;99.90;1.30;100854.00;;;;4929253;28;113259;-63
2024/03/06 01:04:14;;;;;;;13.53;10.90;;;1.60;99.90;1.20;100859.00;;;;4928782;28;94075;-61
2024/03/06 01:06:40;;;;;;;16.67;10.73;;;1.50;99.90;1.20;100853.00;;;;4924424;28;123010;-62
2024/03/06 01:09:05;;;;;;;15.27;10.87;;;1.50;99.90;1.10;100854.00;;;;4926894;28;121482;-63
2024/03/06 01:11:31;;;;;;;21.97;12.17;;;1.50;99.90;1.10;100855.00;;;;4932500;28;112517;-62
2024/03/06 01:13:57;;;;;;;16.50;11.93;;;2.20;99.90;1.10;100863.00;;;;4928395;28;108872;-63
2024/03/06 01:16:23;;;;;;;14.93;10.07;;;1.50;99.90;1.10;100852.00;;;;4925831;28;94387;-63
2024/03/06 01:18:48;;;;;;;18.40;11.93;;;1.40;99.90;1.10;100862.00;;;;4928123;28;109693;-62
2024/03/06 01:21:14;;;;;;;18.47;10.40;;;1.40;99.90;1.10;100870.00;;;;4933831;28;92405;-61
2024/03/06 01:23:40;;;;;;;16.23;11.40;;;1.40;99.90;1.00;100874.00;;;;4930111;28;108092;-65
2024/03/06 01:26:06;;;;;;;16.90;11.57;;;1.40;99.90;1.00;100861.00;;;;4931905;28;121876;-63
2024/03/06 01:28:33;;;;;;;17.07;10.37;;;1.40;99.90;1.00;100870.00;;;;4931430;28;121827;-62
2024/03/06 01:30:58;;;;;;;20.10;11.93;;;1.30;99.90;1.00;100866.00;;;;4932949;28;93032;-62
2024/03/06 01:33:24;;;;;;;21.37;10.40;;;1.40;99.90;1.00;100885.00;;;;4929212;28;93242;-62
2024/03/06 01:35:50;;;;;;;17.60;11.67;;;1.30;99.90;1.00;100870.00;;;;4928434;28;124329;-64
2024/03/06 01:38:15;;;;;;;16.50;11.43;;;1.20;99.90;1.00;100878.00;;;;4928650;28;120970;-64
2024/03/06 01:40:44;;;;;;;18.27;10.43;;;1.30;99.90;1.00;100880.00;;;;4929312;28;92886;-64
2024/03/06 01:43:21;;;;;;;20.07;11.20;;;1.20;99.90;0.90;100876.00;;;;4926763;28;93103;-63
2024/03/06 01:45:49;;;;;;;20.67;12.50;;;1.30;99.90;0.90;100877.00;;;;4923807;28;93709;-63
2024/03/06 01:48:18;;;;;;;16.27;11.37;;;1.20;99.90;0.90;100880.00;;;;4925905;28;93451;-63
2024/03/06 01:50:44;;;;;;;18.13;9.90;;;1.10;99.90;0.90;100875.00;;;;4931320;28;93275;-63
2024/03/06 01:53:12;;;;;;;18.67;12.37;;;1.20;99.90;0.90;100879.00;;;;4932298;28;109103;-62
2024/03/06 01:55:37;;;;;;;20.23;11.13;;;1.20;99.90;0.90;100884.00;;;;4926750;28;93171;-62
2024/03/06 01:58:03;;;;;;;17.17;10.47;;;1.20;99.90;0.80;100889.00;;;;4927650;28;104485;-63
2024/03/06 02:00:29;;;;;;;15.67;11.93;;;1.10;99.90;0.80;100885.00;;;;4925341;28;92830;-61
2024/03/06 02:02:55;;;;;;;24.23;12.33;;;1.20;99.90;0.80;100883.00;;;;4928343;28;93266;-63
2024/03/06 02:05:21;;;;;;;19.70;12.90;;;1.10;99.90;0.80;100889.00;;;;4925385;28;122610;-64
2024/03/06 02:07:47;;;;;;;15.70;11.00;;;1.10;99.90;0.70;100880.00;;;;4923115;28;93165;-62
2024/03/06 02:10:13;;;;;;;16.00;11.33;;;1.10;99.90;0.70;100881.00;;;;4925644;28;96299;-62
2024/03/06 02:12:39;;;;;;;17.03;11.10;;;1.00;99.90;0.70;100889.00;;;;4930452;28;93027;-64
2024/03/06 02:15:05;;;;;;;19.37;11.97;;;1.00;99.90;0.70;100890.00;;;;4927446;28;93051;-62
2024/03/06 02:17:31;;;;;;;18.07;11.50;;;1.00;99.90;0.60;100882.00;;;;4932211;28;94215;-63
2024/03/06 02:19:58;;;;;;;14.97;10.87;;;0.90;99.90;0.60;100885.00;;;;4935339;28;113566;-62
2024/03/06 02:22:24;;;;;;;20.73;11.77;;;1.00;99.90;0.60;100891.00;;;;4928565;28;93251;-63
2024/03/06 02:24:50;;;;;;;24.23;11.40;;;0.90;99.90;0.50;100885.00;;;;4933913;28;93320;-63
2024/03/06 02:27:16;;;;;;;18.50;10.53;;;0.80;99.90;0.50;100881.00;;;;4926499;28;105221;-63
2024/03/06 02:29:43;;;;;;;21.43;11.73;;;0.90;99.90;0.50;100885.00;;;;4929294;28;92841;-63
2024/03/06 02:32:09;;;;;;;19.13;13.03;;;0.80;99.90;0.40;100871.00;;;;4930928;28;93069;-64
2024/03/06 02:34:35;;;;;;;20.60;11.97;;;0.80;99.90;0.40;100879.00;;;;4930328;28;120778;-62
2024/03/06 02:37:00;;;;;;;16.60;12.43;;;0.80;99.90;0.40;100887.00;;;;4931582;28;93381;-63
2024/03/06 02:39:26;;;;;;;21.77;11.63;;;0.70;99.90;0.40;100880.00;;;;4930156;28;92992;-62
2024/03/06 02:41:52;;;;;;;15.27;11.70;;;0.70;99.90;0.30;100881.00;;;;4930383;28;94163;-63
2024/03/06 02:44:18;;;;;;;19.20;11.63;;;1.30;99.90;0.30;100889.00;;;;4927546;28;122022;-63
2024/03/06 02:46:48;;;;;;;22.63;14.47;;;0.70;99.90;0.30;100879.00;;;;4932478;28;93412;-62
2024/03/06 02:49:15;;;;;;;16.97;10.97;;;0.60;99.90;0.30;100883.00;;;;4932350;28;93036;-63
2024/03/06 02:51:41;;;;;;;19.20;12.40;;;0.60;99.90;0.30;100877.00;;;;4935304;28;96507;-63
2024/03/06 02:54:07;;;;;;;21.50;13.07;;;0.60;99.90;0.30;100876.00;;;;4937668;28;93748;-63
2024/03/06 02:56:32;;;;;;;20.83;13.33;;;0.50;99.90;0.20;100894.00;;;;4936176;28;122593;-63
2024/03/06 02:58:58;;;;;;;18.83;12.77;;;0.60;99.90;0.20;100887.00;;;;4928597;28;112509;-63
2024/03/06 03:01:24;;;;;;;19.07;11.23;;;0.60;99.90;0.20;100890.00;;;;4927075;28;108782;-63
2024/03/06 03:03:51;;;;;;;20.00;11.20;;;0.60;99.90;0.20;100894.00;;;;4934257;28;93710;-64
2024/03/06 03:06:16;;;;;;;22.70;11.90;;;0.50;99.90;0.20;100897.00;;;;4924392;28;94137;-60
2024/03/06 03:08:42;;;;;;;22.17;11.67;;;0.60;99.90;0.20;100887.00;;;;4931839;28;113836;-63
2024/03/06 03:11:08;;;;;;;19.07;11.33;;;1.20;99.90;0.20;100903.00;;;;4932003;28;92789;-63
2024/03/06 03:13:33;;;;;;;19.80;12.10;;;0.50;99.90;0.20;100877.00;;;;4927956;28;122874;-63
2024/03/06 03:15:59;;;;;;;21.80;11.67;;;0.50;99.90;0.20;100897.00;;;;4940740;28;92857;-63
2024/03/06 03:18:25;;;;;;;16.40;12.03;;;1.20;99.90;0.10;100892.00;;;;4933227;28;98175;-62
2024/03/06 03:20:50;;;;;;;20.47;12.37;;;0.40;99.90;0.10;100902.00;;;;4934671;28;93009;-62
2024/03/06 03:23:21;;;;;;;20.77;11.93;;;0.40;99.90;0.10;100905.00;;;;4926228;28;122414;-63
2024/03/06 03:25:48;;;;;;;16.37;11.83;;;0.50;99.90;0.10;100912.00;;;;4932120;28;93070;-64
2024/03/06 03:28:15;;;;;;;21.30;12.23;;;0.50;99.90;0.10;100919.00;;;;4934125;28;92945;-63
2024/03/06 03:30:44;;;;;;;17.73;11.77;;;0.50;99.90;0.10;100916.00;;;;4936426;28;95153;-63
2024/03/06 03:33:09;;;;;;;17.77;12.33;;;0.40;99.90;0.00;100919.00;;;;4938188;28;93755;-64
2024/03/06 03:35:35;;;;;;;21.37;11.33;;;0.40;99.90;0.00;100920.00;;;;4933566;28;93763;-65
2024/03/06 03:38:00;;;;;;;24.57;13.57;;;0.30;99.90;0.00;100921.00;;;;4931329;28;112268;-62
2024/03/06 03:40:26;;;;;;;19.47;11.27;;;0.40;99.90;0.00;100919.00;;;;4932312;28;108898;-63
2024/03/06 03:42:52;;;;;;;16.30;11.67;;;0.40;99.90;0.00;100926.00;;;;4931646;28;122731;-63
2024/03/06 03:45:18;;;;;;;19.33;12.77;;;0.40;99.90;0.00;100928.00;;;;4929156;28;124343;-64
2024/03/06 03:47:43;;;;;;;22.63;12.13;;;0.40;99.90;0.00;100922.00;;;;4933808;28;92100;-63
2024/03/06 03:50:09;;;;;;;17.43;10.47;;;0.30;99.90;0.00;100921.00;;;;4929414;28;108194;-62
2024/03/06 03:52:37;;;;;;;24.83;11.80;;;0.40;99.90;0.00;100925.00;;;;4945558;28;94112;-63
2024/03/06 03:55:03;;;;;;;20.20;11.80;;;0.30;99.90;0.00;100935.00;;;;4930407;28;93877;-63
2024/03/06 03:57:30;;;;;;;23.10;12.43;;;0.30;99.90;-0.10;100948.00;;;;4933936;28;92747;-62
2024/03/06 03:59:56;;;;;;;18.20;11.17;;;0.30;99.90;-0.10;100943.00;;;;4934238;28;92713;-63
2024/03/06 04:02:22;;;;;;;17.60;11.57;;;0.30;99.90;-0.10;100947.00;;;;4931387;28;94147;-61
2024/03/06 04:04:47;;;;;;;17.57;13.03;;;0.30;99.90;-0.10;100940.00;;;;4936824;28;104262;-64
2024/03/06 04:07:16;;;;;;;20.50;12.40;;;0.20;99.90;-0.10;100939.00;;;;4932657;28;113095;-64
2024/03/06 04:09:41;;;;;;;18.53;11.90;;;0.20;99.90;-0.10;100945.00;;;;4928839;28;93089;-63
2024/03/06 04:12:07;;;;;;;18.23;13.40;;;0.20;99.90;-0.10;100949.00;;;;4939178;28;121207;-63
2024/03/06 04:14:33;;;;;;;22.00;13.30;;;0.30;99.90;-0.20;100946.00;;;;4934306;28;121490;-62
2024/03/06 04:16:58;;;;;;;19.33;13.00;;;0.20;99.90;-0.20;100945.00;;;;4935871;28;93292;-63
2024/03/06 04:19:24;;;;;;;15.60;11.50;;;0.10;99.90;-0.20;100956.00;;;;4930929;28;109168;-65
2024/03/06 04:21:50;;;;;;;17.97;11.90;;;0.20;99.90;-0.20;100968.00;;;;4931976;28;123338;-64
2024/03/06 04:24:15;;;;;;;21.30;13.27;;;0.10;99.90;-0.20;100949.00;;;;4933220;28;92979;-64
2024/03/06 04:26:41;;;;;;;20.00;12.87;;;0.10;99.90;-0.20;100953.00;;;;4934333;28;113070;-64
2024/03/06 04:29:07;;;;;;;21.20;12.60;;;0.10;99.90;-0.30;100962.00;;;;4931545;28;108391;-65
2024/03/06 04:31:32;;;;;;;23.70;14.00;;;0.10;99.90;-0.30;100965.00;;;;4934880;28;122141;-64
2024/03/06 04:33:58;;;;;;;24.30;12.43;;;0.00;99.90;-0.30;100977.00;;;;4931490;28;93571;-64
2024/03/06 04:36:24;;;;;;;26.60;11.70;;;-0.80;99.90;-0.30;100967.00;;;;4931563;28;113165;-65
2024/03/06 04:38:49;;;;;;;20.53;12.10;;;0.10;99.90;-0.30;100967.00;;;;4933050;28;92770;-63
2024/03/06 04:41:18;;;;;;;17.27;10.77;;;0.00;99.90;-0.30;100966.00;;;;4925637;28;121274;-63
2024/03/06 04:43:44;;;;;;;20.37;13.43;;;0.00;99.90;-0.30;100969.00;;;;4932439;28;98943;-62
2024/03/06 04:46:14;;;;;;;23.00;14.73;;;0.00;99.90;-0.30;100969.00;;;;4930223;28;113448;-65
2024/03/06 04:48:40;;;;;;;21.53;12.80;;;0.20;99.90;-0.30;100974.00;;;;4937901;28;93007;-63
2024/03/06 04:51:05;;;;;;;19.50;13.23;;;0.00;99.90;-0.30;100973.00;;;;4931651;28;93586;-63
2024/03/06 04:53:31;;;;;;;26.93;15.00;;;-0.10;99.90;-0.30;100978.00;;;;4929539;28;121749;-64
2024/03/06 04:55:57;;;;;;;24.17;14.30;;;0.00;99.90;-0.30;100971.00;;;;4933527;28;93191;-64
2024/03/06 04:58:22;;;;;;;18.83;13.70;;;0.00;99.90;-0.40;100977.00;;;;4933209;28;107857;-62
2024/03/06 05:00:48;;;;;;;20.20;12.43;;;0.00;99.90;-0.40;100983.00;;;;4937733;28;93154;-63
2024/03/06 05:03:15;;;;;;;21.10;12.53;;;-0.10;99.90;-0.40;100987.00;;;;4930554;28;121896;-64
2024/03/06 05:05:40;;;;;;;20.93;10.93;;;-0.10;99.90;-0.40;100982.00;;;;4927644;28;92997;-64
2024/03/06 05:08:10;;;;;;;20.53;12.83;;;0.00;99.90;-0.40;100989.00;;;;4938078;28;99503;-64
2024/03/06 05:10:36;;;;;;;27.00;14.03;;;0.00;99.90;-0.40;100980.00;;;;4928434;28;94166;-64
2024/03/06 05:13:02;;;;;;;24.40;13.67;;;-0.10;99.90;-0.40;100986.00;;;;4927177;28;121761;-63
2024/03/06 05:15:27;;;;;;;26.40;14.37;;;0.00;99.90;-0.40;100985.00;;;;4930520;28;93179;-64
2024/03/06 05:17:55;;;;;;;25.20;14.67;;;-0.10;99.90;-0.50;101001.00;;;;4929251;28;108905;-64
2024/03/06 05:20:21;;;;;;;18.73;13.10;;;-0.10;99.90;-0.50;101006.00;;;;4930740;28;93610;-64
2024/03/06 05:22:47;;;;;;;22.40;13.10;;;-0.10;99.90;-0.50;100997.00;;;;4929759;28;94830;-64
2024/03/06 05:25:13;;;;;;;20.40;14.10;;;-0.10;99.90;-0.50;101004.00;;;;4929070;28;112958;-64
2024/03/06 05:27:38;;;;;;;19.53;12.70;;;-0.10;99.90;-0.50;101003.00;;;;4938727;28;92998;-64
2024/03/06 05:30:05;;;;;;;19.67;12.23;;;-0.10;99.90;-0.50;101007.00;;;;4930171;28;93545;-64
2024/03/06 05:32:31;;;;;;;35.00;15.93;;;-0.10;99.90;-0.50;101006.00;;;;4927628;28;112495;-64
2024/03/06 05:34:58;;;;;;;26.23;15.53;;;-0.20;99.90;-0.50;101016.00;;;;4927568;28;104961;-64
2024/03/06 05:37:23;;;;;;;19.53;14.03;;;-0.10;99.90;-0.50;101027.00;;;;4925302;28;93248;-64
2024/03/06 05:39:49;;;;;;;21.80;13.47;;;-0.10;99.90;-0.50;101017.00;;;;4927850;28;122275;-64
2024/03/06 05:42:14;;;;;;;25.97;15.10;;;0.00;99.90;-0.60;101023.00;;;;4926314;28;123310;-64
2024/03/06 05:44:40;;;;;;;31.13;13.67;;;-0.20;99.90;-0.60;101033.00;;;;4936746;28;112876;-64
2024/03/06 05:47:06;;;;;;;19.87;12.83;;;-0.30;99.90;-0.70;101026.00;;;;4927401;28;95207;-63
2024/03/06 05:49:32;;;;;;;27.37;15.40;;;-0.30;99.90;-0.70;101029.00;;;;4928395;28;93112;-64
2024/03/06 05:51:58;;;;;;;26.63;16.83;;;-0.30;99.90;-0.70;101025.00;;;;4931046;28;92637;-64
2024/03/06 05:54:24;;;;;;;28.53;16.73;;;-0.40;99.90;-0.70;101042.00;;;;4925803;28;102695;-64
2024/03/06 05:56:51;;;;;;;25.37;15.90;;;-0.30;99.90;-0.70;101043.00;;;;4926229;28;93791;-65
2024/03/06 05:59:18;;;;;;;38.23;24.27;;;-0.40;99.90;-0.70;101049.00;;;;4921814;28;92848;-64
2024/03/06 06:01:44;;;;;;;37.63;21.17;;;-0.40;99.90;-0.80;101042.00;;;;4926400;28;111059;-63
2024/03/06 06:04:10;;;;;;;29.47;18.77;;;-0.40;99.90;-0.70;101047.00;;;;4933756;28;93106;-63
2024/03/06 06:06:36;;;;;;;28.77;19.30;;;-0.50;99.90;-0.70;101060.00;;;;4925108;28;92889;-64
2024/03/06 06:09:05;;;;;;;27.43;16.90;;;-0.30;99.90;-0.70;101057.00;;;;4918201;28;123579;-64
2024/03/06 06:11:34;;;;;;;29.67;17.70;;;-0.20;99.90;-0.70;101063.00;;;;4926639;28;93484;-64
2024/03/06 06:14:00;;;;;;;27.93;17.90;;;-1.00;99.90;-0.60;101056.00;;;;4927369;28;104690;-64
2024/03/06 06:16:26;;;;;;;23.30;16.67;;;-0.20;99.90;-0.50;101072.00;;;;4927720;28;108099;-65
2024/03/06 06:18:52;;;;;;;23.60;15.47;;;-0.20;99.90;-0.50;101071.00;;;;4925678;28;123267;-65
2024/03/06 06:21:18;;;;;;;24.37;15.43;;;-0.20;99.90;-0.40;101070.00;;;;4928454;28;94077;-66
2024/03/06 06:23:44;;;;;;;30.23;15.27;;;-0.10;99.90;-0.30;101069.00;;;;4938422;28;93014;-65
2024/03/06 06:26:12;;;;;;;24.10;16.00;;;0.00;99.90;-0.20;101065.00;;;;4924736;28;101676;-66
2024/03/06 06:28:41;;;;;;;32.73;15.97;;;0.20;99.90;-0.20;101069.00;;;;4931250;28;93003;-63
2024/03/06 06:31:07;;;;;;;22.27;14.27;;;1.20;99.90;0.00;101078.00;;;;4925963;28;92899;-63
2024/03/06 06:33:33;;;;;;;24.90;16.63;;;0.30;99.90;0.00;101077.00;;;;4932127;28;92893;-63
2024/03/06 06:35:59;;;;;;;24.53;16.73;;;0.40;99.90;0.20;101080.00;;;;4925366;28;92755;-64
2024/03/06 06:38:24;;;;;;;31.00;18.67;;;0.40;99.90;0.30;101085.00;;;;4925900;28;122245;-63
2024/03/06 06:40:50;;;;;;;31.40;16.23;;;0.70;99.90;0.40;101089.00;;;;4925146;28;122166;-64
2024/03/06 06:43:16;;;;;;;22.73;14.37;;;0.80;99.90;0.50;101094.00;;;;4927496;28;113623;-64
2024/03/06 06:45:42;;;;;;;22.23;15.37;;;0.80;99.90;0.70;101094.00;;;;4929999;28;93822;-63
2024/03/06 06:48:08;;;;;;;27.93;15.13;;;1.00;99.90;0.80;101087.00;;;;4921886;28;126667;-63
2024/03/06 06:50:35;;;;;;;22.37;15.40;;;1.20;99.90;0.90;101105.00;;;;4922085;28;93792;-63
2024/03/06 06:53:01;;;;;;;30.53;17.23;;;2.20;99.90;1.00;101096.00;;;;4926747;28;104894;-63
2024/03/06 06:55:26;;;;;;;23.53;16.60;;;2.20;99.90;1.10;101103.00;;;;4924849;28;93104;-64
2024/03/06 06:57:52;;;;;;;26.37;17.17;;;1.40;99.90;1.20;101111.00;;;;4922646;28;122111;-63
2024/03/06 07:00:18;;;;;;;24.60;14.73;;;1.50;99.90;1.40;101122.00;;;;4925197;28;92951;-63
2024/03/06 07:02:45;;;;;;;23.10;14.30;;;1.60;99.90;1.40;101119.00;;;;4928456;28;92727;-63
2024/03/06 07:05:11;;;;;;;20.60;15.53;;;1.70;99.90;1.60;101115.00;;;;4925170;28;93184;-63
2024/03/06 07:07:38;;;;;;;21.63;13.87;;;1.90;99.90;1.80;101139.00;;;;4927270;28;111517;-63
2024/03/06 07:10:05;;;;;;;29.77;15.57;;;2.10;99.90;1.90;101134.00;;;;4925901;28;121956;-62
2024/03/06 07:12:31;;;;;;;19.93;14.33;;;2.10;99.90;2.00;101133.00;;;;4926528;28;92948;-64
2024/03/06 07:14:58;;;;;;;24.40;14.30;;;2.30;99.90;2.00;101144.00;;;;4926027;28;109031;-65
2024/03/06 07:17:23;;;;;;;23.50;14.53;;;2.40;99.90;2.10;101142.00;;;;4925492;28;112606;-65
2024/03/06 07:19:50;;;;;;;24.40;13.93;;;2.30;99.90;2.10;101145.00;;;;4923928;28;122741;-64
2024/03/06 07:22:16;;;;;;;19.50;13.27;;;2.40;99.90;2.20;101139.00;;;;4926507;28;94242;-65
2024/03/06 07:24:41;;;;;;;20.63;13.30;;;2.50;99.90;2.30;101138.00;;;;4927372;28;92993;-64
2024/03/06 07:27:11;;;;;;;28.60;16.90;;;2.60;99.90;2.50;101136.00;;;;4927350;28;122886;-64
2024/03/06 07:29:37;;;;;;;25.13;14.83;;;2.70;99.90;2.60;101141.00;;;;4924891;28;93203;-63
2024/03/06 07:32:05;;;;;;;23.03;14.43;;;2.80;99.90;2.70;101144.00;;;;4925108;28;93625;-63
2024/03/06 07:34:31;;;;;;;25.73;14.50;;;3.00;99.90;2.80;101144.00;;;;4926723;28;93875;-63
2024/03/06 07:36:59;;;;;;;25.37;14.90;;;2.90;99.90;3.00;101155.00;;;;4925933;28;111061;-63
2024/03/06 07:39:25;;;;;;;23.97;15.23;;;3.10;99.90;3.20;101149.00;;;;4930717;28;93805;-63
2024/03/06 07:41:51;;;;;;;23.27;14.83;;;3.40;99.90;3.50;101156.00;;;;4938767;28;92899;-63
2024/03/06 07:44:17;;;;;;;24.47;14.30;;;3.60;99.90;3.80;101158.00;;;;4924976;28;107242;-63
2024/03/06 07:46:42;;;;;;;23.00;12.47;;;3.90;99.90;4.00;101161.00;;;;4924028;28;122826;-64
2024/03/06 07:49:08;;;;;;;18.93;12.57;;;4.10;99.90;4.20;101156.00;;;;4922805;28;121398;-63
2024/03/06 07:51:35;;;;;;;24.07;13.27;;;4.40;99.90;4.30;101151.00;;;;4928456;28;92030;-63
2024/03/06 07:54:01;;;;;;;23.23;13.17;;;4.50;99.90;4.40;101167.00;;;;4926235;28;94121;-62
2024/03/06 07:56:28;;;;;;;22.90;12.53;;;4.60;99.90;4.50;101164.00;;;;4922923;28;108160;-63
2024/03/06 07:58:54;;;;;;;22.40;13.40;;;4.60;99.90;4.60;101171.00;;;;4926279;28;94240;-63
2024/03/06 08:01:20;;;;;;;19.70;13.73;;;4.80;99.90;4.60;101177.00;;;;4925726;28;92890;-63
2024/03/06 08:03:47;;;;;;;27.10;14.00;;;5.00;99.90;4.60;101168.00;;;;4928452;28;93100;-63
2024/03/06 08:06:15;;;;;;;26.77;14.83;;;4.70;99.90;4.50;101176.00;;;;4928585;28;106242;-63
2024/03/06 08:08:43;;;;;;;21.40;13.80;;;4.80;99.90;4.50;101177.00;;;;4927518;28;93537;-64
2024/03/06 08:11:10;;;;;;;18.17;11.93;;;5.30;99.90;4.50;101168.00;;;;4930609;28;92846;-65
2024/03/06 08:13:37;;;;;;;19.87;11.47;;;4.70;99.90;4.60;101173.00;;;;4926252;28;92954;-65
2024/03/06 08:16:04;;;;;;;22.43;13.87;;;4.80;99.90;4.60;101178.00;;;;4923054;28;117139;-65
2024/03/06 08:18:30;;;;;;;18.30;12.47;;;4.80;99.90;4.60;101186.00;;;;4929136;28;93278;-64
2024/03/06 08:20:56;;;;;;;22.23;13.33;;;4.80;99.90;4.60;101178.00;;;;4925663;28;92781;-64
2024/03/06 08:23:23;;;;;;;21.77;13.40;;;4.70;99.90;4.60;101183.00;;;;4929083;28;94720;-64
2024/03/06 08:25:49;;;;;;;24.30;13.13;;;4.80;99.90;4.60;101186.00;;;;4926316;28;93813;-64
2024/03/06 08:28:15;;;;;;;21.97;12.90;;;4.80;99.90;4.60;101189.00;;;;4925423;28;98550;-64
2024/03/06 08:30:41;;;;;;;14.97;12.57;;;4.90;99.90;4.60;101193.00;;;;4923924;28;93135;-62
2024/03/06 08:33:07;;;;;;;20.87;12.90;;;4.80;99.90;4.50;101194.00;;;;4925384;28;98626;-64
2024/03/06 08:35:32;;;;;;;23.37;12.87;;;4.70;99.90;4.40;101200.00;;;;4924133;28;93245;-63
2024/03/06 08:37:59;;;;;;;23.97;13.40;;;5.60;99.90;4.40;101194.00;;;;4926496;28;93904;-63
2024/03/06 08:40:27;;;;;;;23.77;13.17;;;4.60;99.90;4.50;101206.00;;;;4925185;28;92632;-63
2024/03/06 08:42:52;;;;;;;18.50;12.23;;;4.60;99.90;4.60;101208.00;;;;4924846;28;93279;-64
2024/03/06 08:45:18;;;;;;;23.43;14.27;;;4.60;99.90;4.80;101203.00;;;;4928017;28;93757;-64
2024/03/06 08:47:45;;;;;;;19.37;14.00;;;4.90;99.90;4.90;101210.00;;;;4924368;28;94244;-63
2024/03/06 08:50:12;;;;;;;17.17;12.43;;;5.00;99.90;5.00;101202.00;;;;4925014;28;92841;-63
2024/03/06 08:52:38;;;;;;;18.87;12.90;;;5.10;99.90;5.20;101208.00;;;;4925911;28;93080;-63
2024/03/06 08:55:05;;;;;;;19.40;13.67;;;5.20;99.90;5.30;101214.00;;;;4923132;28;93415;-63
2024/03/06 08:57:32;;;;;;;21.70;12.57;;;5.40;99.90;5.40;101212.00;;;;4922607;28;94092;-63
2024/03/06 08:59:58;;;;;;;17.97;12.53;;;5.40;99.90;5.60;101213.00;;;;4924785;28;93302;-63
2024/03/06 09:02:25;;;;;;;17.60;10.90;;;5.70;99.90;5.80;101209.00;;;;4926485;28;96054;-63
2024/03/06 09:04:51;;;;;;;22.73;13.27;;;5.70;99.90;6.10;101218.00;;;;4923687;28;93731;-63
2024/03/06 09:07:18;;;;;;;23.17;12.60;;;6.00;99.90;6.50;101223.00;;;;4924285;28;93564;-63
2024/03/06 09:09:44;;;;;;;23.80;13.10;;;6.40;99.90;6.80;101221.00;;;;4923858;28;105127;-62
2024/03/06 09:12:10;;;;;;;20.63;12.77;;;6.70;99.90;7.10;101235.00;;;;4924000;28;108571;-63
2024/03/06 09:14:37;;;;;;;24.20;13.07;;;7.00;99.90;7.30;101223.00;;;;4928151;28;105007;-63
2024/03/06 09:17:04;;;;;;;18.20;10.17;;;7.30;99.90;7.60;101238.00;;;;4923418;28;107804;-64
2024/03/06 09:19:30;;;;;;;21.00;12.30;;;7.50;99.90;7.90;101245.00;;;;4923094;28;93158;-63
2024/03/06 09:21:56;;;;;;;18.63;10.40;;;7.80;99.90;8.30;101238.00;;;;4926092;28;93512;-63
2024/03/06 09:24:24;;;;;;;16.33;10.73;;;8.20;99.90;8.60;101249.00;;;;4923131;28;94004;-62
2024/03/06 09:26:51;;;;;;;20.83;11.93;;;8.60;99.90;8.70;101250.00;;;;4923667;28;92919;-63
2024/03/06 09:29:17;;;;;;;14.50;10.73;;;8.70;99.90;8.80;101262.00;;;;4924172;28;93010;-63
2024/03/06 09:31:43;;;;;;;19.13;11.70;;;8.80;99.90;8.70;101248.00;;;;4921756;28;93257;-63
2024/03/06 09:34:12;;;;;;;18.47;10.70;;;8.80;99.90;8.70;101262.00;;;;4920748;28;107749;-63
2024/03/06 09:36:44;;;;;;;20.93;9.97;;;8.80;99.90;8.70;101256.00;;;;4928931;28;93953;-64
2024/03/06 09:39:16;;;;;;;15.00;9.80;;;8.80;99.90;8.80;101252.00;;;;4921648;28;93111;-63
2024/03/06 09:41:46;;;;;;;14.50;9.40;;;8.80;99.90;8.90;101256.00;;;;4925217;28;93270;-63
2024/03/06 09:44:13;;;;;;;21.87;11.90;;;8.90;99.90;9.20;101267.00;;;;4925271;28;115255;-63
2024/03/06 09:46:42;;;;;;;17.30;10.53;;;9.10;99.90;9.30;101261.00;;;;4925471;28;93374;-63
2024/03/06 09:49:09;;;;;;;15.37;9.13;;;9.30;99.90;9.30;101258.00;;;;4921046;28;92766;-63
2024/03/06 09:51:35;;;;;;;15.47;9.07;;;9.30;99.90;9.40;101261.00;;;;4926543;28;93805;-63
2024/03/06 09:54:02;;;;;;;22.23;10.93;;;9.40;99.90;9.60;101264.00;;;;4931122;28;94124;-64
2024/03/06 09:56:28;;;;;;;16.13;9.03;;;9.50;99.90;9.60;101271.00;;;;4930505;28;93165;-64
2024/03/06 09:58:54;;;;;;;18.53;9.77;;;9.50;99.90;9.90;101270.00;;;;4925408;28;113086;-64
2024/03/06 10:01:20;;;;;;;14.70;9.77;;;9.70;99.90;10.30;101273.00;;;;4924118;28;98112;-64
2024/03/06 10:03:46;;;;;;;16.60;10.40;;;10.10;99.90;10.70;101274.00;;;;4926399;28;104824;-61
2024/03/06 10:06:11;;;;;;;14.83;8.73;;;10.50;99.90;11.10;101279.00;;;;4922245;28;93345;-62
2024/03/06 10:08:43;;;;;;;17.03;9.40;;;10.80;99.90;11.40;101280.00;;;;4918626;28;113953;-64
2024/03/06 10:11:10;;;;;;;14.93;8.90;;;11.10;99.90;11.50;101285.00;;;;4922555;28;93210;-63
2024/03/06 10:13:36;;;;;;;19.83;9.77;;;11.40;99.90;11.70;101296.00;;;;4906139;28;95021;-63
2024/03/06 10:16:08;;;;;;;14.93;9.00;;;11.50;99.90;11.90;101295.00;;;;4919424;28;122598;-63
2024/03/06 10:18:34;;;;;;;12.93;9.37;;;11.80;99.90;12.30;101297.00;;;;4923376;28;92338;-65
2024/03/06 10:21:00;;;;;;;14.27;9.00;;;12.00;99.00;12.40;101298.00;;;;4922336;28;93253;-64
2024/03/06 10:23:29;;;;;;;13.70;9.70;;;12.20;97.80;12.50;101287.00;;;;4920205;28;93775;-63
2024/03/06 10:25:55;;;;;;;15.53;8.93;;;12.30;96.60;12.60;101289.00;;;;4919771;28;94135;-63
2024/03/06 10:28:23;;;;;;;12.87;8.83;;;12.40;96.80;12.80;101290.00;;;;4922179;28;93049;-64
2024/03/06 10:30:50;;;;;;;15.60;9.37;;;12.50;97.20;12.90;101291.00;;;;4927176;28;92863;-64
2024/03/06 10:33:18;;;;;;;16.63;9.47;;;12.70;97.10;13.20;101304.00;;;;4923901;28;93460;-63
2024/03/06 10:35:48;;;;;;;19.97;9.37;;;12.90;96.90;13.40;101292.00;;;;4920900;28;98049;-64
2024/03/06 10:38:14;;;;;;;15.00;8.93;;;13.10;96.30;13.60;101296.00;;;;4924449;28;92941;-64